Terminal Aerodrome Forecast
Issued by NWS Springfield, MO

Home | Current Version | Previous Version | Text Only | Print | Product List | Glossary On
Versions: 1 2 3 4 5 6 7 8 9 10 11 12 13
000
FTUS43 KSGF 271100
TAFSGF
TAF
KSGF 271120Z 2712/2812 34008KT P6SM SCT009 OVC015
      TEMPO 2712/2716 BKN009 OVC015
     FM271700 36010G18KT P6SM BKN250
     FM280100 VRB03KT P6SM SCT100 BKN250
     FM280800 14008KT P6SM SCT040 OVC100=

USA.gov is the U.S. government's official web portal to all federal, state and local government web resources and services.